sensor_id;sensor_type;location;lat;lon;timestamp;pressure;altitude;pressure_sealevel;temperature;humidity
47716;BME280;33476;50.984;3.538;2023-02-13T00:00:41;103700.28;;;10.67;60.09
47716;BME280;33476;50.984;3.538;2023-02-13T00:03:06;103703.78;;;10.71;60.09
47716;BME280;33476;50.984;3.538;2023-02-13T00:05:32;103702.88;;;10.73;59.97
47716;BME280;33476;50.984;3.538;2023-02-13T00:07:57;103704.63;;;10.74;59.91
47716;BME280;33476;50.984;3.538;2023-02-13T00:10:23;103694.16;;;10.73;60.01
47716;BME280;33476;50.984;3.538;2023-02-13T00:12:48;103695.03;;;10.73;60.12
47716;BME280;33476;50.984;3.538;2023-02-13T00:15:13;103697.66;;;10.73;60.19
47716;BME280;33476;50.984;3.538;2023-02-13T00:17:39;103693.31;;;10.71;60.27
47716;BME280;33476;50.984;3.538;2023-02-13T00:20:04;103686.34;;;10.71;60.28
47716;BME280;33476;50.984;3.538;2023-02-13T00:22:35;103689.81;;;10.67;60.41
47716;BME280;33476;50.984;3.538;2023-02-13T00:25:02;103692.44;;;10.70;60.19
47716;BME280;33476;50.984;3.538;2023-02-13T00:27:27;103689.84;;;10.68;60.33
47716;BME280;33476;50.984;3.538;2023-02-13T00:29:52;103693.34;;;10.67;60.35
47716;BME280;33476;50.984;3.538;2023-02-13T00:32:18;103689.84;;;10.68;60.50
47716;BME280;33476;50.984;3.538;2023-02-13T00:34:43;103696.81;;;10.68;60.57
47716;BME280;33476;50.984;3.538;2023-02-13T00:37:08;103703.75;;;10.66;60.64
47716;BME280;33476;50.984;3.538;2023-02-13T00:39:34;103697.69;;;10.68;60.60
47716;BME280;33476;50.984;3.538;2023-02-13T00:41:59;103691.59;;;10.68;60.59
47716;BME280;33476;50.984;3.538;2023-02-13T00:44:24;103704.66;;;10.68;60.72
47716;BME280;33476;50.984;3.538;2023-02-13T00:46:50;103698.56;;;10.67;60.63
47716;BME280;33476;50.984;3.538;2023-02-13T00:49:15;103697.66;;;10.70;60.74
47716;BME280;33476;50.984;3.538;2023-02-13T00:51:40;103695.94;;;10.67;60.78
47716;BME280;33476;50.984;3.538;2023-02-13T00:54:06;103691.59;;;10.68;60.75
47716;BME280;33476;50.984;3.538;2023-02-13T00:56:31;103684.63;;;10.68;60.95
47716;BME280;33476;50.984;3.538;2023-02-13T00:58:56;103693.31;;;10.66;60.77
47716;BME280;33476;50.984;3.538;2023-02-13T01:01:22;103681.09;;;10.66;60.92
47716;BME280;33476;50.984;3.538;2023-02-13T01:03:47;103687.19;;;10.67;60.82
47716;BME280;33476;50.984;3.538;2023-02-13T01:06:12;103689.84;;;10.64;61.03
47716;BME280;33476;50.984;3.538;2023-02-13T01:08:39;103692.44;;;10.65;61.11
47716;BME280;33476;50.984;3.538;2023-02-13T01:11:05;103688.97;;;10.65;61.03
47716;BME280;33476;50.984;3.538;2023-02-13T01:13:30;103688.09;;;10.66;60.90
47716;BME280;33476;50.984;3.538;2023-02-13T01:15:56;103690.69;;;10.66;61.04
47716;BME280;33476;50.984;3.538;2023-02-13T01:18:21;103682.00;;;10.62;61.05
47716;BME280;33476;50.984;3.538;2023-02-13T01:21:02;103686.38;;;10.57;61.40
47716;BME280;33476;50.984;3.538;2023-02-13T01:23:33;103687.25;;;10.59;61.20
47716;BME280;33476;50.984;3.538;2023-02-13T01:25:59;103682.03;;;10.59;61.21
47716;BME280;33476;50.984;3.538;2023-02-13T01:28:25;103690.72;;;10.55;61.43
47716;BME280;33476;50.984;3.538;2023-02-13T01:30:55;103685.50;;;10.48;61.63
47716;BME280;33476;50.984;3.538;2023-02-13T01:33:21;103689.84;;;10.50;61.57
47716;BME280;33476;50.984;3.538;2023-02-13T01:35:47;103690.75;;;10.54;61.46
47716;BME280;33476;50.984;3.538;2023-02-13T01:38:13;103695.09;;;10.53;61.42
47716;BME280;33476;50.984;3.538;2023-02-13T01:40:47;103691.59;;;10.48;61.85
47716;BME280;33476;50.984;3.538;2023-02-13T01:43:13;103687.28;;;10.44;61.72
47716;BME280;33476;50.984;3.538;2023-02-13T01:45:39;103682.91;;;10.32;61.93
47716;BME280;33476;50.984;3.538;2023-02-13T01:48:10;103682.06;;;10.27;62.38
47716;BME280;33476;50.984;3.538;2023-02-13T01:50:44;103679.44;;;10.23;62.39
47716;BME280;33476;50.984;3.538;2023-02-13T01:53:32;103674.22;;;10.13;62.53
47716;BME280;33476;50.984;3.538;2023-02-13T01:56:26;103668.09;;;10.08;62.78
47716;BME280;33476;50.984;3.538;2023-02-13T01:58:55;103662.00;;;10.08;62.53
47716;BME280;33476;50.984;3.538;2023-02-13T02:01:22;103665.50;;;10.04;62.47
47716;BME280;33476;50.984;3.538;2023-02-13T02:04:12;103663.75;;;9.97;62.87
47716;BME280;33476;50.984;3.538;2023-02-13T02:06:43;103661.16;;;9.94;62.61
47716;BME280;33476;50.984;3.538;2023-02-13T02:09:15;103660.28;;;9.87;62.97
47716;BME280;33476;50.984;3.538;2023-02-13T02:11:54;103660.28;;;9.76;63.11
47716;BME280;33476;50.984;3.538;2023-02-13T02:14:21;103659.41;;;9.83;63.19
47716;BME280;33476;50.984;3.538;2023-02-13T02:16:46;103650.72;;;9.77;63.17
47716;BME280;33476;50.984;3.538;2023-02-13T02:22:14;103659.41;;;9.77;62.82
47716;BME280;33476;50.984;3.538;2023-02-13T02:29:56;103651.56;;;9.65;63.65
47716;BME280;33476;50.984;3.538;2023-02-13T02:32:34;103652.44;;;9.64;63.55
47716;BME280;33476;50.984;3.538;2023-02-13T02:43:27;103648.06;;;9.55;63.66
47716;BME280;33476;50.984;3.538;2023-02-13T02:46:20;103648.06;;;9.54;63.50
47716;BME280;33476;50.984;3.538;2023-02-13T02:51:55;103647.22;;;9.53;63.18
47716;BME280;33476;50.984;3.538;2023-02-13T02:54:28;103653.28;;;9.54;63.33
47716;BME280;33476;50.984;3.538;2023-02-13T02:57:19;103649.81;;;9.52;63.32
47716;BME280;33476;50.984;3.538;2023-02-13T02:59:47;103656.75;;;9.51;63.73
47716;BME280;33476;50.984;3.538;2023-02-13T03:02:32;103655.88;;;9.48;63.25
47716;BME280;33476;50.984;3.538;2023-02-13T03:05:21;103652.38;;;9.43;63.76
47716;BME280;33476;50.984;3.538;2023-02-13T03:08:06;103654.13;;;9.42;63.36
47716;BME280;33476;50.984;3.538;2023-02-13T03:10:34;103662.81;;;9.35;63.56
47716;BME280;33476;50.984;3.538;2023-02-13T03:13:38;103658.47;;;9.29;63.45
47716;BME280;33476;50.984;3.538;2023-02-13T03:16:06;103661.94;;;9.30;63.32
47716;BME280;33476;50.984;3.538;2023-02-13T03:18:55;103654.09;;;9.22;63.64
47716;BME280;33476;50.984;3.538;2023-02-13T03:30:26;103646.22;;;9.04;63.45
47716;BME280;33476;50.984;3.538;2023-02-13T03:36:09;103649.63;;;8.88;64.04
47716;BME280;33476;50.984;3.538;2023-02-13T03:39:43;103649.59;;;8.82;63.68
47716;BME280;33476;50.984;3.538;2023-02-13T03:42:24;103646.97;;;8.79;63.70
47716;BME280;33476;50.984;3.538;2023-02-13T03:44:59;103646.06;;;8.72;63.41
47716;BME280;33476;50.984;3.538;2023-02-13T03:47:46;103646.03;;;8.67;63.27
47716;BME280;33476;50.984;3.538;2023-02-13T03:50:14;103654.66;;;8.57;63.36
47716;BME280;33476;50.984;3.538;2023-02-13T03:52:59;103653.75;;;8.46;63.08
47716;BME280;33476;50.984;3.538;2023-02-13T03:55:34;103656.31;;;8.40;62.95
47716;BME280;33476;50.984;3.538;2023-02-13T03:58:23;103654.47;;;8.33;63.10
47716;BME280;33476;50.984;3.538;2023-02-13T04:01:11;103664.88;;;8.28;62.71
47716;BME280;33476;50.984;3.538;2023-02-13T04:03:44;103657.91;;;8.26;62.63
47716;BME280;33476;50.984;3.538;2023-02-13T04:06:19;103656.09;;;8.15;63.05
47716;BME280;33476;50.984;3.538;2023-02-13T04:08:45;103660.44;;;8.16;63.29
47716;BME280;33476;50.984;3.538;2023-02-13T04:11:24;103652.56;;;8.06;63.10
47716;BME280;33476;50.984;3.538;2023-02-13T04:16:21;103654.28;;;8.05;62.03
47716;BME280;33476;50.984;3.538;2023-02-13T04:18:48;103655.19;;;8.10;62.14
47716;BME280;33476;50.984;3.538;2023-02-13T04:21:14;103650.75;;;7.97;62.02
47716;BME280;33476;50.984;3.538;2023-02-13T04:23:39;103654.16;;;7.88;62.36
47716;BME280;33476;50.984;3.538;2023-02-13T04:26:07;103654.06;;;7.79;62.24
47716;BME280;33476;50.984;3.538;2023-02-13T04:28:33;103652.28;;;7.77;62.35
47716;BME280;33476;50.984;3.538;2023-02-13T04:30:58;103660.09;;;7.74;62.03
47716;BME280;33476;50.984;3.538;2023-02-13T04:33:23;103653.94;;;7.67;62.38
47716;BME280;33476;50.984;3.538;2023-02-13T04:35:49;103660.00;;;7.63;62.37
47716;BME280;33476;50.984;3.538;2023-02-13T04:38:14;103660.78;;;7.59;62.02
47716;BME280;33476;50.984;3.538;2023-02-13T04:40:39;103666.84;;;7.55;62.65
47716;BME280;33476;50.984;3.538;2023-02-13T04:43:05;103658.97;;;7.49;62.55
47716;BME280;33476;50.984;3.538;2023-02-13T04:45:30;103659.84;;;7.48;62.58
47716;BME280;33476;50.984;3.538;2023-02-13T04:47:56;103664.16;;;7.46;62.49
47716;BME280;33476;50.984;3.538;2023-02-13T04:50:23;103661.56;;;7.46;61.79
47716;BME280;33476;50.984;3.538;2023-02-13T04:52:56;103660.56;;;7.36;62.28
47716;BME280;33476;50.984;3.538;2023-02-13T04:55:23;103662.34;;;7.40;62.14
47716;BME280;33476;50.984;3.538;2023-02-13T04:57:51;103658.81;;;7.35;61.86
47716;BME280;33476;50.984;3.538;2023-02-13T05:00:17;103660.50;;;7.28;62.07
47716;BME280;33476;50.984;3.538;2023-02-13T05:02:42;103661.28;;;7.23;61.74
47716;BME280;33476;50.984;3.538;2023-02-13T05:05:08;103661.22;;;7.18;62.17
47716;BME280;33476;50.984;3.538;2023-02-13T05:07:33;103657.75;;;7.16;61.82
47716;BME280;33476;50.984;3.538;2023-02-13T05:09:58;103658.53;;;7.11;61.93
47716;BME280;33476;50.984;3.538;2023-02-13T05:12:24;103662.00;;;7.11;61.89
47716;BME280;33476;50.984;3.538;2023-02-13T05:14:49;103660.22;;;7.06;61.62
47716;BME280;33476;50.984;3.538;2023-02-13T05:17:14;103659.28;;;7.02;61.47
47716;BME280;33476;50.984;3.538;2023-02-13T05:19:40;103654.94;;;7.01;62.01
47716;BME280;33476;50.984;3.538;2023-02-13T05:22:05;103654.03;;;6.96;61.15
47716;BME280;33476;50.984;3.538;2023-02-13T05:24:49;103660.13;;;6.96;61.54
47716;BME280;33476;50.984;3.538;2023-02-13T05:27:14;103657.44;;;6.92;60.98
47716;BME280;33476;50.984;3.538;2023-02-13T05:29:39;103647.88;;;6.88;61.12
47716;BME280;33476;50.984;3.538;2023-02-13T05:32:05;103658.19;;;6.83;61.35
47716;BME280;33476;50.984;3.538;2023-02-13T05:34:30;103653.84;;;6.81;61.10
47716;BME280;33476;50.984;3.538;2023-02-13T05:36:55;103661.56;;;6.78;61.74
47716;BME280;33476;50.984;3.538;2023-02-13T05:39:21;103653.75;;;6.73;61.21
47716;BME280;33476;50.984;3.538;2023-02-13T05:41:47;103650.25;;;6.71;61.15
47716;BME280;33476;50.984;3.538;2023-02-13T05:44:13;103652.78;;;6.66;61.25
47716;BME280;33476;50.984;3.538;2023-02-13T05:46:40;103657.06;;;6.63;61.53
47716;BME280;33476;50.984;3.538;2023-02-13T05:49:07;103652.69;;;6.62;61.25
47716;BME280;33476;50.984;3.538;2023-02-13T05:51:32;103661.34;;;6.61;61.48
47716;BME280;33476;50.984;3.538;2023-02-13T05:53:58;103661.34;;;6.61;61.42
47716;BME280;33476;50.984;3.538;2023-02-13T05:56:23;103657.88;;;6.59;61.20
47716;BME280;33476;50.984;3.538;2023-02-13T05:58:53;103661.22;;;6.52;61.03
47716;BME280;33476;50.984;3.538;2023-02-13T06:01:19;103659.47;;;6.51;61.36
47716;BME280;33476;50.984;3.538;2023-02-13T06:03:45;103665.50;;;6.46;61.46
47716;BME280;33476;50.984;3.538;2023-02-13T06:06:10;103655.97;;;6.45;60.87
47716;BME280;33476;50.984;3.538;2023-02-13T06:08:36;103652.41;;;6.40;61.17
47716;BME280;33476;50.984;3.538;2023-02-13T06:11:01;103659.31;;;6.38;61.33
47716;BME280;33476;50.984;3.538;2023-02-13T06:13:27;103655.78;;;6.35;61.39
47716;BME280;33476;50.984;3.538;2023-02-13T06:15:52;103662.69;;;6.33;61.15
47716;BME280;33476;50.984;3.538;2023-02-13T06:18:18;103655.69;;;6.29;61.03
47716;BME280;33476;50.984;3.538;2023-02-13T06:20:43;103661.72;;;6.26;61.03
47716;BME280;33476;50.984;3.538;2023-02-13T06:23:09;103660.81;;;6.24;61.19
47716;BME280;33476;50.984;3.538;2023-02-13T06:25:34;103659.94;;;6.22;61.05
47716;BME280;33476;50.984;3.538;2023-02-13T06:28:01;103661.66;;;6.22;61.06
47716;BME280;33476;50.984;3.538;2023-02-13T06:30:26;103665.13;;;6.22;61.37
47716;BME280;33476;50.984;3.538;2023-02-13T06:32:52;103662.53;;;6.22;61.48
47716;BME280;33476;50.984;3.538;2023-02-13T06:35:17;103666.03;;;6.26;61.36
47716;BME280;33476;50.984;3.538;2023-02-13T06:37:43;103665.25;;;6.30;61.36
47716;BME280;33476;50.984;3.538;2023-02-13T06:40:09;103666.13;;;6.30;61.80
47716;BME280;33476;50.984;3.538;2023-02-13T06:42:34;103665.25;;;6.30;61.79
47716;BME280;33476;50.984;3.538;2023-02-13T06:45:00;103667.84;;;6.31;61.50
47716;BME280;33476;50.984;3.538;2023-02-13T06:47:25;103666.97;;;6.29;62.10
47716;BME280;33476;50.984;3.538;2023-02-13T06:49:50;103666.16;;;6.33;61.70
47716;BME280;33476;50.984;3.538;2023-02-13T06:52:16;103671.34;;;6.35;62.05
47716;BME280;33476;50.984;3.538;2023-02-13T06:54:41;103673.94;;;6.33;62.32
47716;BME280;33476;50.984;3.538;2023-02-13T06:57:07;103680.84;;;6.33;62.77
47716;BME280;33476;50.984;3.538;2023-02-13T06:59:32;103673.94;;;6.33;63.25
47716;BME280;33476;50.984;3.538;2023-02-13T07:01:57;103673.94;;;6.33;63.58
47716;BME280;33476;50.984;3.538;2023-02-13T07:04:23;103674.81;;;6.35;63.79
47716;BME280;33476;50.984;3.538;2023-02-13T07:06:49;103680.88;;;6.34;64.17
47716;BME280;33476;50.984;3.538;2023-02-13T07:09:14;103681.72;;;6.33;64.26
47716;BME280;33476;50.984;3.538;2023-02-13T07:11:41;103691.22;;;6.31;64.67
47716;BME280;33476;50.984;3.538;2023-02-13T07:14:07;103688.63;;;6.31;65.06
47716;BME280;33476;50.984;3.538;2023-02-13T07:16:32;103701.63;;;6.33;65.35
47716;BME280;33476;50.984;3.538;2023-02-13T07:18:58;103692.97;;;6.34;65.21
47716;BME280;33476;50.984;3.538;2023-02-13T07:21:23;103692.09;;;6.33;65.56
47716;BME280;33476;50.984;3.538;2023-02-13T07:23:48;103689.47;;;6.30;65.82
47716;BME280;33476;50.984;3.538;2023-02-13T07:26:14;103698.88;;;6.24;66.06
47716;BME280;33476;50.984;3.538;2023-02-13T07:28:40;103697.13;;;6.21;66.58
47716;BME280;33476;50.984;3.538;2023-02-13T07:31:05;103701.41;;;6.20;66.67
47716;BME280;33476;50.984;3.538;2023-02-13T07:33:32;103695.31;;;6.18;66.96
47716;BME280;33476;50.984;3.538;2023-02-13T07:35:57;103690.09;;;6.15;67.15
47716;BME280;33476;50.984;3.538;2023-02-13T07:38:23;103692.69;;;6.15;66.68
47716;BME280;33476;50.984;3.538;2023-02-13T07:40:48;103703.06;;;6.14;66.83
47716;BME280;33476;50.984;3.538;2023-02-13T07:43:13;103702.19;;;6.13;66.79
47716;BME280;33476;50.984;3.538;2023-02-13T07:45:39;103702.22;;;6.16;66.54
47716;BME280;33476;50.984;3.538;2023-02-13T07:48:04;103700.53;;;6.20;66.29
47716;BME280;33476;50.984;3.538;2023-02-13T07:50:29;103700.59;;;6.22;66.07
47716;BME280;33476;50.984;3.538;2023-02-13T07:53:00;103704.06;;;6.22;66.35
47716;BME280;33476;50.984;3.538;2023-02-13T07:55:29;103704.97;;;6.27;66.19
47716;BME280;33476;50.984;3.538;2023-02-13T07:57:55;103705.06;;;6.30;65.96
47716;BME280;33476;50.984;3.538;2023-02-13T08:00:21;103704.25;;;6.36;65.44
47716;BME280;33476;50.984;3.538;2023-02-13T08:02:47;103712.09;;;6.37;65.29
47716;BME280;33476;50.984;3.538;2023-02-13T08:05:13;103712.91;;;6.36;65.36
47716;BME280;33476;50.984;3.538;2023-02-13T08:07:38;103705.19;;;6.39;65.77
47716;BME280;33476;50.984;3.538;2023-02-13T08:10:07;103710.41;;;6.41;64.93
47716;BME280;33476;50.984;3.538;2023-02-13T08:12:51;103706.19;;;6.49;65.36
47716;BME280;33476;50.984;3.538;2023-02-13T08:15:17;103711.50;;;6.55;65.16
47716;BME280;33476;50.984;3.538;2023-02-13T08:17:42;103707.22;;;6.60;64.82
47716;BME280;33476;50.984;3.538;2023-02-13T08:20:08;103707.34;;;6.68;65.31
47716;BME280;33476;50.984;3.538;2023-02-13T08:22:38;103706.59;;;6.76;64.47
47716;BME280;33476;50.984;3.538;2023-02-13T08:25:04;103705.91;;;6.90;64.86
47716;BME280;33476;50.984;3.538;2023-02-13T08:27:30;103706.91;;;6.99;64.30
47716;BME280;33476;50.984;3.538;2023-02-13T08:29:56;103711.34;;;7.08;63.93
47716;BME280;33476;50.984;3.538;2023-02-13T08:32:23;103706.25;;;7.14;63.82
47716;BME280;33476;50.984;3.538;2023-02-13T08:34:48;103708.28;;;7.38;63.57
47716;BME280;33476;50.984;3.538;2023-02-13T08:37:14;103702.34;;;7.53;63.44
47716;BME280;33476;50.984;3.538;2023-02-13T08:39:39;103700.66;;;7.56;63.92
47716;BME280;33476;50.984;3.538;2023-02-13T08:42:04;103695.50;;;7.61;63.84
47716;BME280;33476;50.984;3.538;2023-02-13T08:44:30;103705.97;;;7.67;63.41
47716;BME280;33476;50.984;3.538;2023-02-13T08:46:56;103705.25;;;7.80;63.99
47716;BME280;33476;50.984;3.538;2023-02-13T08:49:21;103705.34;;;7.94;63.64
47716;BME280;33476;50.984;3.538;2023-02-13T08:51:48;103702.97;;;8.17;62.71
47716;BME280;33476;50.984;3.538;2023-02-13T08:54:13;103697.16;;;8.44;62.99
47716;BME280;33476;50.984;3.538;2023-02-13T08:56:39;103700.00;;;8.93;61.33
47716;BME280;33476;50.984;3.538;2023-02-13T08:59:04;103696.81;;;10.59;57.32
47716;BME280;33476;50.984;3.538;2023-02-13T09:01:30;103687.28;;;13.00;51.05
47716;BME280;33476;50.984;3.538;2023-02-13T09:03:55;103679.41;;;14.67;46.77
47716;BME280;33476;50.984;3.538;2023-02-13T09:06:20;103678.81;;;16.10;43.90
47716;BME280;33476;50.984;3.538;2023-02-13T09:08:46;103675.72;;;17.20;41.84
47716;BME280;33476;50.984;3.538;2023-02-13T09:11:11;103680.25;;;18.25;39.78
47716;BME280;33476;50.984;3.538;2023-02-13T09:13:36;103688.91;;;19.04;38.62
47716;BME280;33476;50.984;3.538;2023-02-13T09:16:04;103679.56;;;19.61;37.93
47716;BME280;33476;50.984;3.538;2023-02-13T09:18:30;103683.31;;;20.40;36.73
47716;BME280;33476;50.984;3.538;2023-02-13T09:20:57;103674.59;;;20.96;35.89
47716;BME280;33476;50.984;3.538;2023-02-13T09:23:23;103678.50;;;21.63;35.09
47716;BME280;33476;50.984;3.538;2023-02-13T09:25:48;103679.00;;;22.05;34.37
47716;BME280;33476;50.984;3.538;2023-02-13T09:28:14;103669.78;;;22.63;33.54
47716;BME280;33476;50.984;3.538;2023-02-13T09:30:39;103674.06;;;22.98;32.89
47716;BME280;33476;50.984;3.538;2023-02-13T09:33:09;103670.53;;;23.30;32.32
47716;BME280;33476;50.984;3.538;2023-02-13T09:35:35;103669.19;;;23.84;32.02
47716;BME280;33476;50.984;3.538;2023-02-13T09:38:01;103667.03;;;24.19;31.43
47716;BME280;33476;50.984;3.538;2023-02-13T09:40:33;103661.66;;;24.63;30.96
47716;BME280;33476;50.984;3.538;2023-02-13T09:43:06;103663.44;;;25.06;30.12
47716;BME280;33476;50.984;3.538;2023-02-13T09:45:36;103659.84;;;25.46;29.71
47716;BME280;33476;50.984;3.538;2023-02-13T09:48:03;103660.72;;;25.47;29.51
47716;BME280;33476;50.984;3.538;2023-02-13T09:50:30;103655.56;;;25.44;29.33
47716;BME280;33476;50.984;3.538;2023-02-13T09:52:58;103655.81;;;24.71;30.41
47716;BME280;33476;50.984;3.538;2023-02-13T09:55:44;103657.50;;;23.71;31.78
47716;BME280;33476;50.984;3.538;2023-02-13T09:58:38;103660.19;;;22.43;34.06
47716;BME280;33476;50.984;3.538;2023-02-13T10:01:14;103667.81;;;21.26;35.62
47716;BME280;33476;50.984;3.538;2023-02-13T10:03:42;103669.16;;;19.99;38.25
47716;BME280;33476;50.984;3.538;2023-02-13T10:06:19;103670.78;;;18.68;40.08
47716;BME280;33476;50.984;3.538;2023-02-13T10:14:18;103673.56;;;17.61;42.52
47716;BME280;33476;50.984;3.538;2023-02-13T10:17:08;103678.34;;;17.78;42.28
47716;BME280;33476;50.984;3.538;2023-02-13T10:19:54;103675.19;;;17.93;42.23
47716;BME280;33476;50.984;3.538;2023-02-13T10:22:40;103668.13;;;17.93;42.07
47716;BME280;33476;50.984;3.538;2023-02-13T10:25:15;103661.66;;;17.76;41.91
47716;BME280;33476;50.984;3.538;2023-02-13T10:27:46;103666.25;;;17.42;42.71
47716;BME280;33476;50.984;3.538;2023-02-13T10:30:23;103662.44;;;17.23;43.15
47716;BME280;33476;50.984;3.538;2023-02-13T10:33:05;103662.28;;;17.28;43.21
47716;BME280;33476;50.984;3.538;2023-02-13T10:38:33;103654.47;;;16.95;43.91
47716;BME280;33476;50.984;3.538;2023-02-13T10:43:50;103661.13;;;16.79;44.45
47716;BME280;33476;50.984;3.538;2023-02-13T10:52:00;103657.91;;;16.35;45.19
47716;BME280;33476;50.984;3.538;2023-02-13T11:02:44;103653.06;;;16.20;45.75
47716;BME280;33476;50.984;3.538;2023-02-13T11:05:16;103655.88;;;16.12;45.73
47716;BME280;33476;50.984;3.538;2023-02-13T11:07:43;103649.59;;;16.18;45.50
47716;BME280;33476;50.984;3.538;2023-02-13T11:10:24;103655.75;;;16.18;45.43
47716;BME280;33476;50.984;3.538;2023-02-13T11:12:51;103653.06;;;16.20;45.50
47716;BME280;33476;50.984;3.538;2023-02-13T11:15:21;103649.59;;;16.18;45.63
47716;BME280;33476;50.984;3.538;2023-02-13T11:17:48;103646.41;;;16.07;46.04
47716;BME280;33476;50.984;3.538;2023-02-13T11:22:56;103653.06;;;16.20;45.96
47716;BME280;33476;50.984;3.538;2023-02-13T11:25:37;103648.41;;;16.29;45.54
47716;BME280;33476;50.984;3.538;2023-02-13T11:28:17;103651.69;;;16.39;45.84
47716;BME280;33476;50.984;3.538;2023-02-13T11:30:44;103642.44;;;16.54;44.88
47716;BME280;33476;50.984;3.538;2023-02-13T11:35:41;103634.56;;;16.52;45.17
47716;BME280;33476;50.984;3.538;2023-02-13T11:40:34;103633.81;;;16.49;45.59
47716;BME280;33476;50.984;3.538;2023-02-13T11:43:00;103624.84;;;16.54;45.71
47716;BME280;33476;50.984;3.538;2023-02-13T11:45:25;103625.00;;;16.50;45.67
47716;BME280;33476;50.984;3.538;2023-02-13T11:47:52;103619.59;;;16.53;45.98
47716;BME280;33476;50.984;3.538;2023-02-13T11:50:32;103615.19;;;16.55;45.76
47716;BME280;33476;50.984;3.538;2023-02-13T11:53:06;103617.56;;;16.64;45.39
47716;BME280;33476;50.984;3.538;2023-02-13T11:55:38;103610.03;;;16.50;45.51
47716;BME280;33476;50.984;3.538;2023-02-13T12:00:37;103606.47;;;16.51;45.95
47716;BME280;33476;50.984;3.538;2023-02-13T12:08:27;103602.22;;;16.47;45.69
47716;BME280;33476;50.984;3.538;2023-02-13T12:10:53;103595.38;;;16.40;45.93
47716;BME280;33476;50.984;3.538;2023-02-13T12:13:26;103593.59;;;16.41;46.07
47716;BME280;33476;50.984;3.538;2023-02-13T12:16:01;103588.38;;;16.39;45.65
47716;BME280;33476;50.984;3.538;2023-02-13T12:18:35;103589.69;;;16.23;46.31
47716;BME280;33476;50.984;3.538;2023-02-13T12:23:48;103588.59;;;15.99;46.75
47716;BME280;33476;50.984;3.538;2023-02-13T12:26:34;103585.97;;;15.99;47.25
47716;BME280;33476;50.984;3.538;2023-02-13T12:31:54;103579.69;;;16.03;47.32
47716;BME280;33476;50.984;3.538;2023-02-13T12:35:17;103581.41;;;16.04;47.31
47716;BME280;33476;50.984;3.538;2023-02-13T12:49:00;103567.94;;;15.46;48.14
47716;BME280;33476;50.984;3.538;2023-02-13T12:51:43;103568.38;;;15.28;48.55
47716;BME280;33476;50.984;3.538;2023-02-13T12:59:39;103559.53;;;15.32;48.60
47716;BME280;33476;50.984;3.538;2023-02-13T13:05:25;103545.91;;;15.15;49.16
47716;BME280;33476;50.984;3.538;2023-02-13T13:16:35;103546.59;;;14.84;49.72
47716;BME280;33476;50.984;3.538;2023-02-13T13:22:45;103540.16;;;14.98;49.54
47716;BME280;33476;50.984;3.538;2023-02-13T13:27:25;103530.69;;;14.89;49.90
47716;BME280;33476;50.984;3.538;2023-02-13T13:29:56;103528.91;;;14.91;49.62
47716;BME280;33476;50.984;3.538;2023-02-13T13:32:23;103526.25;;;14.93;49.97
47716;BME280;33476;50.984;3.538;2023-02-13T13:34:50;103525.28;;;14.95;50.07
47716;BME280;33476;50.984;3.538;2023-02-13T13:37:39;103526.34;;;14.88;50.35
47716;BME280;33476;50.984;3.538;2023-02-13T13:40:25;103524.56;;;14.88;50.36
47716;BME280;33476;50.984;3.538;2023-02-13T13:43:09;103527.38;;;14.81;50.50
47716;BME280;33476;50.984;3.538;2023-02-13T13:48:53;103524.78;;;14.79;49.93
47716;BME280;33476;50.984;3.538;2023-02-13T13:51:23;103520.34;;;14.83;50.14
47716;BME280;33476;50.984;3.538;2023-02-13T13:57:03;103522.28;;;14.75;50.42
47716;BME280;33476;50.984;3.538;2023-02-13T14:05:19;103510.53;;;14.88;50.57
47716;BME280;33476;50.984;3.538;2023-02-13T14:07:48;103515.72;;;14.93;50.47
47716;BME280;33476;50.984;3.538;2023-02-13T14:18:06;103504.31;;;14.92;50.25
47716;BME280;33476;50.984;3.538;2023-02-13T14:20:56;103503.59;;;14.85;50.26
47716;BME280;33476;50.984;3.538;2023-02-13T14:31:33;103496.81;;;14.75;50.44
47716;BME280;33476;50.984;3.538;2023-02-13T14:36:31;103502.94;;;14.76;50.60
47716;BME280;33476;50.984;3.538;2023-02-13T14:39:30;103494.44;;;14.63;50.40
47716;BME280;33476;50.984;3.538;2023-02-13T14:41:58;103497.75;;;14.73;50.35
47716;BME280;33476;50.984;3.538;2023-02-13T14:44:31;103494.25;;;14.72;50.29
47716;BME280;33476;50.984;3.538;2023-02-13T14:47:02;103495.09;;;14.74;50.32
47716;BME280;33476;50.984;3.538;2023-02-13T14:49:34;103501.34;;;14.69;50.62
47716;BME280;33476;50.984;3.538;2023-02-13T14:52:06;103499.66;;;14.66;50.32
47716;BME280;33476;50.984;3.538;2023-02-13T14:54:49;103498.88;;;14.61;50.92
47716;BME280;33476;50.984;3.538;2023-02-13T14:57:26;103490.19;;;14.59;51.06
47716;BME280;33476;50.984;3.538;2023-02-13T14:59:57;103492.81;;;14.59;50.93
47716;BME280;33476;50.984;3.538;2023-02-13T15:02:26;103496.38;;;14.55;51.08
47716;BME280;33476;50.984;3.538;2023-02-13T15:05:29;103493.78;;;14.53;50.92
47716;BME280;33476;50.984;3.538;2023-02-13T15:08:07;103490.31;;;14.53;51.10
47716;BME280;33476;50.984;3.538;2023-02-13T15:10:48;103492.84;;;14.57;50.89
47716;BME280;33476;50.984;3.538;2023-02-13T15:13:36;103490.22;;;14.56;50.81
47716;BME280;33476;50.984;3.538;2023-02-13T15:16:12;103495.69;;;14.48;51.23
47716;BME280;33476;50.984;3.538;2023-02-13T15:18:46;103493.16;;;14.42;51.34
47716;BME280;33476;50.984;3.538;2023-02-13T15:21:16;103490.56;;;14.41;51.39
47716;BME280;33476;50.984;3.538;2023-02-13T15:23:43;103493.09;;;14.44;51.49
47716;BME280;33476;50.984;3.538;2023-02-13T15:26:08;103489.66;;;14.42;51.48
47716;BME280;33476;50.984;3.538;2023-02-13T15:29:01;103492.38;;;14.37;51.68
47716;BME280;33476;50.984;3.538;2023-02-13T15:31:31;103495.03;;;14.36;51.59
47716;BME280;33476;50.984;3.538;2023-02-13T15:33:58;103494.22;;;14.33;52.00
47716;BME280;33476;50.984;3.538;2023-02-13T15:36:25;103490.72;;;14.33;52.05